createdAt,value
2018-12-17T00:00:09.502Z,22.70
2018-12-17T00:02:37.082Z,22.87
2018-12-17T00:05:05.116Z,21.27
2018-12-17T00:07:32.585Z,25.13
2018-12-17T00:10:00.084Z,19.57
2018-12-17T00:12:27.528Z,23.23
2018-12-17T00:14:55.008Z,21.30
2018-12-17T00:17:22.486Z,19.10
2018-12-17T00:19:49.977Z,21.73
2018-12-17T00:22:17.563Z,18.93
2018-12-17T00:24:45.053Z,18.50
2018-12-17T00:27:12.520Z,22.10
2018-12-17T00:29:39.978Z,20.23
2018-12-17T00:32:08.209Z,19.40
2018-12-17T00:34:35.664Z,24.83
2018-12-17T00:37:03.135Z,21.13
2018-12-17T00:39:30.623Z,21.03
2018-12-17T00:41:58.073Z,20.77
2018-12-17T00:44:25.554Z,19.30
2018-12-17T00:46:53.010Z,22.10
2018-12-17T00:49:20.486Z,20.43
2018-12-17T00:51:47.954Z,19.57
2018-12-17T00:54:15.414Z,19.37
2018-12-17T00:56:42.885Z,20.60
2018-12-17T00:59:10.340Z,20.40
2018-12-17T01:01:37.899Z,18.40
2018-12-17T01:04:05.379Z,20.93
2018-12-17T01:06:32.839Z,18.43
2018-12-17T01:09:00.301Z,16.63
2018-12-17T01:11:27.764Z,20.77
2018-12-17T01:13:55.230Z,17.63
2018-12-17T01:16:22.705Z,17.77
2018-12-17T01:18:50.182Z,17.13
2018-12-17T01:21:17.640Z,24.13
2018-12-17T01:23:45.392Z,19.33
2018-12-17T01:26:13.015Z,16.20
2018-12-17T01:28:40.854Z,18.80
2018-12-17T01:31:08.326Z,20.37
2018-12-17T01:33:35.765Z,18.30
2018-12-17T01:36:03.244Z,19.57
2018-12-17T01:38:30.708Z,17.33
2018-12-17T01:40:58.175Z,16.07
2018-12-17T01:43:25.636Z,21.67
2018-12-17T01:45:53.111Z,18.77
2018-12-17T01:48:20.566Z,24.30
2018-12-17T01:50:48.050Z,17.30
2018-12-17T01:53:15.509Z,16.40
2018-12-17T01:55:42.991Z,19.07
2018-12-17T01:58:10.449Z,21.03
2018-12-17T02:00:37.926Z,17.30
2018-12-17T02:03:05.367Z,19.67
2018-12-17T02:05:32.842Z,19.00
2018-12-17T02:08:00.303Z,16.43
2018-12-17T02:10:27.764Z,19.33
2018-12-17T02:12:55.226Z,16.67
2018-12-17T02:15:22.753Z,18.57
2018-12-17T02:17:50.279Z,17.20
2018-12-17T02:20:17.736Z,21.23
2018-12-17T02:22:45.201Z,16.63
2018-12-17T02:25:12.658Z,15.93
2018-12-17T02:27:40.132Z,16.47
2018-12-17T02:30:07.581Z,14.63
2018-12-17T02:32:35.054Z,14.73
2018-12-17T02:35:02.532Z,18.37
2018-12-17T02:37:29.999Z,17.60
2018-12-17T02:39:57.476Z,15.93
2018-12-17T02:42:24.943Z,16.33
2018-12-17T02:44:52.399Z,14.90
2018-12-17T02:47:19.863Z,17.30
2018-12-17T02:49:47.334Z,20.33
2018-12-17T02:52:14.806Z,18.23
2018-12-17T02:54:42.528Z,21.03
2018-12-17T02:57:09.996Z,22.50
2018-12-17T02:59:37.442Z,21.10
2018-12-17T03:02:04.922Z,20.97
2018-12-17T03:04:32.403Z,25.53
2018-12-17T03:06:59.864Z,22.17
2018-12-17T03:09:27.347Z,20.93
2018-12-17T03:11:54.803Z,27.03
2018-12-17T03:14:22.384Z,24.77
2018-12-17T03:16:49.826Z,24.97
2018-12-17T03:19:17.311Z,20.70
2018-12-17T03:21:44.778Z,19.93
2018-12-17T03:24:12.256Z,23.47
2018-12-17T03:26:39.736Z,23.83
2018-12-17T03:29:07.194Z,18.67
2018-12-17T03:31:34.969Z,23.43
2018-12-17T03:34:02.461Z,22.37
2018-12-17T03:36:29.910Z,27.67
2018-12-17T03:38:57.369Z,24.33
2018-12-17T03:41:24.849Z,22.83
2018-12-17T03:43:52.367Z,24.27
2018-12-17T03:46:19.854Z,23.97
2018-12-17T03:48:47.303Z,26.20
2018-12-17T03:51:14.782Z,25.77
2018-12-17T03:53:42.233Z,22.23
2018-12-17T03:56:09.704Z,25.07
2018-12-17T03:58:37.271Z,22.03
2018-12-17T04:01:04.754Z,21.87
2018-12-17T04:03:32.201Z,25.57
2018-12-17T04:05:59.668Z,24.87
2018-12-17T04:08:27.154Z,22.90
2018-12-17T04:10:54.649Z,25.33
2018-12-17T04:13:22.091Z,28.60
2018-12-17T04:15:49.562Z,23.20
2018-12-17T04:18:17.055Z,22.40
2018-12-17T04:20:44.506Z,28.77
2018-12-17T04:23:11.984Z,26.30
2018-12-17T04:25:39.473Z,27.17
2018-12-17T04:28:08.946Z,22.23
2018-12-17T04:30:36.389Z,31.00
2018-12-17T04:33:03.943Z,26.03
2018-12-17T04:35:31.387Z,24.77
2018-12-17T04:37:58.861Z,27.73
2018-12-17T04:40:26.315Z,22.13
2018-12-17T04:42:53.822Z,23.53
2018-12-17T04:45:21.278Z,19.70
2018-12-17T04:47:48.786Z,23.70
2018-12-17T04:50:16.240Z,18.00
2018-12-17T04:52:43.698Z,20.17
2018-12-17T04:55:11.258Z,22.43
2018-12-17T04:57:39.011Z,21.73
2018-12-17T05:00:08.947Z,18.80
2018-12-17T05:02:36.424Z,15.57
2018-12-17T05:05:04.881Z,23.03
2018-12-17T05:07:32.363Z,18.93
2018-12-17T05:09:59.805Z,16.67
2018-12-17T05:12:27.286Z,17.93
2018-12-17T05:14:54.777Z,17.00
2018-12-17T05:17:22.210Z,19.17
2018-12-17T05:19:49.679Z,20.33
2018-12-17T05:22:17.132Z,22.17
2018-12-17T05:24:44.608Z,19.27
2018-12-17T05:27:12.159Z,52.83
2018-12-17T05:29:39.652Z,52.57
2018-12-17T05:32:07.109Z,30.07
2018-12-17T05:34:34.578Z,33.03
2018-12-17T05:37:02.037Z,27.63
2018-12-17T05:39:29.519Z,30.47
2018-12-17T05:41:56.967Z,32.30
2018-12-17T05:44:24.430Z,29.90
2018-12-17T05:46:51.903Z,24.67
2018-12-17T05:49:19.378Z,24.23
2018-12-17T05:51:46.845Z,22.03
2018-12-17T05:54:14.326Z,22.47
2018-12-17T05:56:41.810Z,22.63
2018-12-17T06:01:43.370Z,18.93
2018-12-17T06:04:10.830Z,19.83
2018-12-17T06:06:38.298Z,21.50
2018-12-17T06:09:07.468Z,20.27
2018-12-17T06:11:35.267Z,25.23
2018-12-17T06:14:03.933Z,17.87
2018-12-17T06:16:31.424Z,16.53
2018-12-17T06:18:58.879Z,20.20
2018-12-17T06:21:26.346Z,20.50
2018-12-17T06:23:53.814Z,18.93
2018-12-17T06:26:21.281Z,19.40
2018-12-17T06:28:48.741Z,21.10
2018-12-17T06:31:16.205Z,21.30
2018-12-17T06:33:43.659Z,28.00
2018-12-17T06:36:11.106Z,22.10
2018-12-17T06:38:38.613Z,20.37
2018-12-17T06:41:06.054Z,20.93
2018-12-17T06:43:33.530Z,23.67
2018-12-17T06:46:00.985Z,24.97
2018-12-17T06:48:28.466Z,21.10
2018-12-17T06:50:55.926Z,29.80
2018-12-17T06:53:23.426Z,24.33
2018-12-17T06:55:50.932Z,28.87
2018-12-17T06:58:18.714Z,26.07
2018-12-17T07:00:46.210Z,26.33
2018-12-17T07:03:13.694Z,27.20
2018-12-17T07:05:41.158Z,22.67
2018-12-17T07:08:08.618Z,27.03
2018-12-17T07:10:36.094Z,26.50
2018-12-17T07:13:03.560Z,19.67
2018-12-17T07:15:31.015Z,28.43
2018-12-17T07:17:58.495Z,21.83
2018-12-17T07:20:25.950Z,18.80
2018-12-17T07:22:53.446Z,30.87
2018-12-17T07:25:20.951Z,21.80
2018-12-17T07:27:48.426Z,21.37
2018-12-17T07:30:15.885Z,24.20
2018-12-17T07:32:43.339Z,21.00
2018-12-17T07:35:10.807Z,24.40
2018-12-17T07:37:38.285Z,25.37
2018-12-17T07:40:07.006Z,21.47
2018-12-17T07:42:34.496Z,21.10
2018-12-17T07:45:01.947Z,27.00
2018-12-17T07:47:29.411Z,20.47
2018-12-17T07:49:56.957Z,26.97
2018-12-17T07:52:24.410Z,22.67
2018-12-17T07:54:51.901Z,23.40
2018-12-17T07:57:19.367Z,23.73
2018-12-17T07:59:46.830Z,26.07
2018-12-17T08:02:14.276Z,27.20
2018-12-17T08:04:41.763Z,22.60
2018-12-17T08:07:09.219Z,24.60
2018-12-17T08:09:36.687Z,25.20
2018-12-17T08:12:04.206Z,23.17
2018-12-17T08:14:31.674Z,25.37
2018-12-17T08:16:59.289Z,18.60
2018-12-17T08:19:26.782Z,28.77
2018-12-17T08:21:54.332Z,25.83
2018-12-17T08:24:21.797Z,19.47
2018-12-17T08:26:49.256Z,26.53
2018-12-17T08:29:16.711Z,21.47
2018-12-17T08:31:44.187Z,22.53
2018-12-17T08:34:11.670Z,21.27
2018-12-17T08:36:39.159Z,21.87
2018-12-17T08:39:06.974Z,19.57
2018-12-17T08:41:34.443Z,19.37
2018-12-17T08:44:02.350Z,24.83
2018-12-17T08:46:29.817Z,22.53
2018-12-17T08:48:57.286Z,21.63
2018-12-17T08:51:24.756Z,22.80
2018-12-17T08:53:53.111Z,15.80
2018-12-17T08:56:20.700Z,22.17
2018-12-17T08:58:48.174Z,19.77
2018-12-17T09:01:15.606Z,18.00
2018-12-17T09:03:43.078Z,16.33
2018-12-17T09:06:10.527Z,17.87
2018-12-17T09:08:38.009Z,24.00
2018-12-17T09:11:05.448Z,14.30
2018-12-17T09:13:32.985Z,13.87
2018-12-17T09:16:00.542Z,15.80
2018-12-17T09:18:27.995Z,15.70
2018-12-17T09:20:55.458Z,16.40
2018-12-17T09:23:22.933Z,16.43
2018-12-17T09:25:50.401Z,16.83
2018-12-17T09:28:18.020Z,13.93
2018-12-17T09:30:45.462Z,16.30
2018-12-17T09:33:12.950Z,18.47
2018-12-17T09:38:14.425Z,20.13
2018-12-17T09:40:41.873Z,14.20
2018-12-17T09:43:09.623Z,16.77
2018-12-17T09:45:37.086Z,12.80
2018-12-17T09:48:04.659Z,11.67
2018-12-17T09:50:32.114Z,15.50
2018-12-17T09:52:59.566Z,11.70
2018-12-17T09:55:27.042Z,9.97
2018-12-17T09:57:54.476Z,12.43
2018-12-17T10:00:25.451Z,13.00
2018-12-17T10:02:51.392Z,13.77
2018-12-17T10:05:18.854Z,11.90
2018-12-17T10:07:46.309Z,14.80
2018-12-17T10:10:13.785Z,11.00
2018-12-17T10:12:41.241Z,9.23
2018-12-17T10:15:08.706Z,12.60
2018-12-17T10:17:36.168Z,11.50
2018-12-17T10:20:04.822Z,10.17
2018-12-17T10:22:32.274Z,11.20
2018-12-17T10:24:59.734Z,9.70
2018-12-17T10:27:27.176Z,9.83
2018-12-17T10:29:54.653Z,13.77
2018-12-17T10:32:22.170Z,10.37
2018-12-17T10:34:49.695Z,12.10
2018-12-17T10:37:17.157Z,10.50
2018-12-17T10:39:45.526Z,9.07
2018-12-17T10:42:13.014Z,11.10
2018-12-17T10:44:40.450Z,7.70
2018-12-17T10:47:07.922Z,8.73
2018-12-17T10:49:35.379Z,8.03
2018-12-17T10:52:02.846Z,10.27
2018-12-17T10:54:30.325Z,7.77
2018-12-17T10:56:57.805Z,9.27
2018-12-17T10:59:25.251Z,7.80
2018-12-17T11:01:55.355Z,8.07
2018-12-17T11:04:24.371Z,12.13
2018-12-17T11:06:51.906Z,10.93
2018-12-17T11:09:19.339Z,8.77
2018-12-17T11:11:46.801Z,6.30
2018-12-17T11:14:14.278Z,8.20
2018-12-17T11:16:41.747Z,6.17
2018-12-17T11:19:09.199Z,8.13
2018-12-17T11:21:36.663Z,8.43
2018-12-17T11:24:04.110Z,7.87
2018-12-17T11:26:31.679Z,7.30
2018-12-17T11:28:59.133Z,10.70
2018-12-17T11:31:26.612Z,7.40
2018-12-17T11:33:54.100Z,9.13
2018-12-17T11:36:21.560Z,8.03
2018-12-17T11:38:49.022Z,8.90
2018-12-17T11:41:16.538Z,9.07
2018-12-17T11:43:44.233Z,7.43
2018-12-17T11:46:11.812Z,6.50
2018-12-17T11:48:39.955Z,12.17
2018-12-17T11:51:07.416Z,8.83
2018-12-17T11:53:34.875Z,9.57
2018-12-17T11:56:02.329Z,10.13
2018-12-17T11:58:29.878Z,9.23
2018-12-17T12:00:58.079Z,7.17
2018-12-17T12:03:25.549Z,8.87
2018-12-17T12:05:53.032Z,12.90
2018-12-17T12:08:20.489Z,6.43
2018-12-17T12:10:47.927Z,6.50
2018-12-17T12:13:15.430Z,9.33
2018-12-17T12:15:42.942Z,5.90
2018-12-17T12:18:10.514Z,7.70
2018-12-17T12:20:37.984Z,5.40
2018-12-17T12:23:05.453Z,5.30
2018-12-17T12:25:32.901Z,5.33
2018-12-17T12:28:00.380Z,5.60
2018-12-17T12:30:27.851Z,8.93
2018-12-17T12:32:55.303Z,10.00
2018-12-17T12:35:22.786Z,5.23
2018-12-17T12:37:50.234Z,7.47
2018-12-17T12:40:17.695Z,5.47
2018-12-17T12:42:51.336Z,11.67
2018-12-17T12:45:14.750Z,9.87
2018-12-17T12:47:42.226Z,11.23
2018-12-17T12:50:09.813Z,18.93
2018-12-17T12:52:37.252Z,8.60
2018-12-17T12:55:05.062Z,5.93
2018-12-17T12:57:32.529Z,6.27
2018-12-17T12:59:59.971Z,5.33
2018-12-17T13:02:27.442Z,7.63
2018-12-17T13:04:54.903Z,6.83
2018-12-17T13:07:22.373Z,7.03
2018-12-17T13:09:49.809Z,5.70
2018-12-17T13:12:17.284Z,6.73
2018-12-17T13:14:44.827Z,8.50
2018-12-17T13:17:17.954Z,6.00
2018-12-17T13:19:45.413Z,7.10
2018-12-17T13:22:12.894Z,7.70
2018-12-17T13:24:40.455Z,8.27
2018-12-17T13:27:07.905Z,6.57
2018-12-17T13:29:35.380Z,8.10
2018-12-17T13:32:02.847Z,11.70
2018-12-17T13:34:30.300Z,9.90
2018-12-17T13:36:57.775Z,8.57
2018-12-17T13:39:25.244Z,11.30
2018-12-17T13:41:52.719Z,7.80
2018-12-17T13:44:20.188Z,6.30
2018-12-17T13:46:47.714Z,6.60
2018-12-17T13:49:15.366Z,5.97
2018-12-17T13:51:48.585Z,9.57
2018-12-17T13:54:16.057Z,6.30
2018-12-17T13:56:43.531Z,4.90
2018-12-17T13:59:10.994Z,6.27
2018-12-17T14:01:38.443Z,8.10
2018-12-17T14:04:05.943Z,7.77
2018-12-17T14:06:33.407Z,8.43
2018-12-17T14:09:00.915Z,8.83
2018-12-17T14:11:28.867Z,8.93
2018-12-17T14:13:56.363Z,5.90
2018-12-17T14:16:25.794Z,6.33
2018-12-17T14:18:58.881Z,4.30
2018-12-17T14:21:32.083Z,7.53
2018-12-17T14:23:59.640Z,6.50
2018-12-17T14:26:27.087Z,6.77
2018-12-17T14:28:54.623Z,7.87
2018-12-17T14:31:28.571Z,9.27
2018-12-17T14:33:51.595Z,6.37
2018-12-17T14:36:19.060Z,6.60
2018-12-17T14:38:46.533Z,7.07
2018-12-17T14:41:14.039Z,7.27
2018-12-17T14:43:41.504Z,4.47
2018-12-17T14:46:08.969Z,7.93
2018-12-17T14:48:36.416Z,6.40
2018-12-17T14:51:03.894Z,7.63
2018-12-17T14:53:31.362Z,8.13
2018-12-17T14:55:58.842Z,7.73
2018-12-17T14:58:26.305Z,6.43
2018-12-17T15:00:53.774Z,5.83
2018-12-17T15:03:21.224Z,5.37
2018-12-17T15:05:48.697Z,7.93
2018-12-17T15:08:16.171Z,10.13
2018-12-17T15:10:43.660Z,6.33
2018-12-17T15:13:11.110Z,6.53
2018-12-17T15:15:38.579Z,9.20
2018-12-17T15:18:06.068Z,7.37
2018-12-17T15:20:33.542Z,8.43
2018-12-17T15:23:01.050Z,10.90
2018-12-17T15:25:28.508Z,7.43
2018-12-17T15:27:55.976Z,5.73
2018-12-17T15:30:23.620Z,7.07
2018-12-17T15:32:51.179Z,6.23
2018-12-17T15:35:18.639Z,5.63
2018-12-17T15:37:46.100Z,9.10
2018-12-17T15:40:13.661Z,6.73
2018-12-17T15:42:41.218Z,9.27
2018-12-17T15:45:08.860Z,7.83
2018-12-17T15:47:36.347Z,7.97
2018-12-17T15:50:04.206Z,10.63
2018-12-17T15:52:31.677Z,9.10
2018-12-17T15:54:59.227Z,10.03
2018-12-17T15:57:26.700Z,9.33
2018-12-17T15:59:54.192Z,9.93
2018-12-17T16:02:21.698Z,9.97
2018-12-17T16:04:49.223Z,7.77
2018-12-17T16:07:16.716Z,11.97
2018-12-17T16:09:44.567Z,9.43
2018-12-17T16:12:12.022Z,7.50
2018-12-17T16:14:39.482Z,9.67
2018-12-17T16:17:06.970Z,11.90
2018-12-17T16:19:34.459Z,11.80
2018-12-17T16:22:01.933Z,11.33
2018-12-17T16:24:29.397Z,14.93
2018-12-17T16:26:56.925Z,11.00
2018-12-17T16:29:24.398Z,10.13
2018-12-17T16:31:57.229Z,9.67
2018-12-17T16:34:21.384Z,9.37
2018-12-17T16:36:49.149Z,10.57
2018-12-17T16:39:16.615Z,12.73
2018-12-17T16:41:44.150Z,10.80
2018-12-17T16:44:11.727Z,12.23
2018-12-17T16:46:39.273Z,14.07
2018-12-17T16:49:06.726Z,10.53
2018-12-17T16:51:34.206Z,12.27
2018-12-17T16:54:01.650Z,9.20
2018-12-17T16:56:29.122Z,10.77
2018-12-17T16:58:56.598Z,13.27
2018-12-17T17:01:24.331Z,13.67
2018-12-17T17:03:51.801Z,15.07
2018-12-17T17:06:19.380Z,21.40
2018-12-17T17:08:46.846Z,15.03
2018-12-17T17:11:14.299Z,12.43
2018-12-17T17:13:41.797Z,12.10
2018-12-17T17:16:09.242Z,10.50
2018-12-17T17:18:36.713Z,11.40
2018-12-17T17:21:04.161Z,13.40
2018-12-17T17:23:31.647Z,12.83
2018-12-17T17:25:59.119Z,12.20
2018-12-17T17:28:26.608Z,11.87
2018-12-17T17:30:54.065Z,12.67
2018-12-17T17:33:21.547Z,13.10
2018-12-17T17:35:48.991Z,12.07
2018-12-17T17:38:16.511Z,11.80
2018-12-17T17:40:43.982Z,12.13
2018-12-17T17:43:11.438Z,11.83
2018-12-17T17:45:38.890Z,14.30
2018-12-17T17:48:06.374Z,14.97
2018-12-17T17:50:33.820Z,15.33
2018-12-17T17:53:01.281Z,14.23
2018-12-17T17:55:28.742Z,13.23
2018-12-17T17:57:56.221Z,9.57
2018-12-17T18:00:23.688Z,13.80
2018-12-17T18:02:51.156Z,11.00
2018-12-17T18:05:18.630Z,11.37
2018-12-17T18:07:46.110Z,11.03
2018-12-17T18:10:13.587Z,11.80
2018-12-17T18:12:41.042Z,12.87
2018-12-17T18:15:08.623Z,12.33
2018-12-17T18:17:36.164Z,13.70
2018-12-17T18:20:03.998Z,16.40
2018-12-17T18:22:31.487Z,17.63
2018-12-17T18:24:58.993Z,16.13
2018-12-17T18:27:26.450Z,18.00
2018-12-17T18:29:53.958Z,17.13
2018-12-17T18:32:25.881Z,15.70
2018-12-17T18:34:50.902Z,19.53
2018-12-17T18:37:18.390Z,14.37
2018-12-17T18:39:45.855Z,18.80
2018-12-17T18:42:13.343Z,31.60
2018-12-17T18:44:40.787Z,21.63
2018-12-17T18:47:08.322Z,25.67
2018-12-17T18:49:35.788Z,30.73
2018-12-17T18:52:03.275Z,28.57
2018-12-17T18:54:31.530Z,26.07
2018-12-17T18:56:59.636Z,22.90
2018-12-17T18:59:27.088Z,19.17
2018-12-17T19:01:54.602Z,21.30
2018-12-17T19:04:22.083Z,23.80
2018-12-17T19:06:49.574Z,21.07
2018-12-17T19:09:17.050Z,19.13
2018-12-17T19:11:44.548Z,19.07
2018-12-17T19:14:12.006Z,20.60
2018-12-17T19:16:39.474Z,18.40
2018-12-17T19:19:06.953Z,14.87
2018-12-17T19:21:34.415Z,16.23
2018-12-17T19:24:02.143Z,13.40
2018-12-17T19:26:29.612Z,11.70
2018-12-17T19:28:57.306Z,10.07
2018-12-17T19:31:26.639Z,14.20
2018-12-17T19:33:54.289Z,10.17
2018-12-17T19:36:21.775Z,11.10
2018-12-17T19:38:49.283Z,12.00
2018-12-17T19:41:16.722Z,11.77
2018-12-17T19:43:44.231Z,11.80
2018-12-17T19:46:11.679Z,10.13
2018-12-17T19:48:39.163Z,12.90
2018-12-17T19:51:06.649Z,12.10
2018-12-17T19:53:34.221Z,15.50
2018-12-17T19:56:01.684Z,16.23
2018-12-17T19:58:29.296Z,11.27
2018-12-17T20:00:56.783Z,12.73
2018-12-17T20:03:24.532Z,15.80
2018-12-17T20:05:51.994Z,13.10
2018-12-17T20:08:19.466Z,15.53
2018-12-17T20:10:46.992Z,12.87
2018-12-17T20:13:14.541Z,15.20
2018-12-17T20:15:42.155Z,12.30
2018-12-17T20:18:09.705Z,15.10
2018-12-17T20:20:37.822Z,14.10
2018-12-17T20:23:05.678Z,18.80
2018-12-17T20:25:33.195Z,19.43
2018-12-17T20:28:00.805Z,16.27
2018-12-17T20:30:28.570Z,16.70
2018-12-17T20:32:56.161Z,16.13
2018-12-17T20:35:24.511Z,17.27
2018-12-17T20:37:52.165Z,14.43
2018-12-17T20:40:19.727Z,13.17
2018-12-17T20:42:47.243Z,10.97
2018-12-17T20:45:14.826Z,12.53
2018-12-17T20:47:42.389Z,11.90
2018-12-17T20:50:10.293Z,12.63
2018-12-17T20:52:37.788Z,13.10
2018-12-17T20:55:05.438Z,12.03
2018-12-17T20:57:33.092Z,10.83
2018-12-17T21:00:00.613Z,12.27
2018-12-17T21:02:28.147Z,16.10
2018-12-17T21:04:56.040Z,10.23
2018-12-17T21:07:23.648Z,12.37
2018-12-17T21:09:51.147Z,11.90
2018-12-17T21:12:19.458Z,10.33
2018-12-17T21:14:48.868Z,12.83
2018-12-17T21:17:16.465Z,9.87
2018-12-17T21:19:43.993Z,12.10
2018-12-17T21:22:11.626Z,12.87
2018-12-17T21:24:39.187Z,11.93
2018-12-17T21:27:06.955Z,11.10
2018-12-17T21:29:34.522Z,10.10
2018-12-17T21:32:02.728Z,13.23
2018-12-17T21:34:30.258Z,12.13
2018-12-17T21:36:57.858Z,10.57
2018-12-17T21:39:25.730Z,11.23
2018-12-17T21:41:54.245Z,10.53
2018-12-17T21:44:21.731Z,11.17
2018-12-17T21:46:49.213Z,11.37
2018-12-17T21:49:16.697Z,9.17
2018-12-17T21:51:44.231Z,12.43
2018-12-17T21:54:11.691Z,9.10
2018-12-17T21:56:39.163Z,11.77
2018-12-17T21:59:06.659Z,10.83
2018-12-17T22:01:34.133Z,12.20
2018-12-17T22:04:01.589Z,9.87
2018-12-17T22:06:29.160Z,12.67
2018-12-17T22:08:56.662Z,12.43
2018-12-17T22:11:24.146Z,12.07
2018-12-17T22:13:51.602Z,14.33
2018-12-17T22:16:19.066Z,13.90
2018-12-17T22:18:46.550Z,10.30
2018-12-17T22:21:14.043Z,11.07
2018-12-17T22:23:41.517Z,10.87
2018-12-17T22:26:09.045Z,9.73
2018-12-17T22:28:36.487Z,12.27
2018-12-17T22:31:03.981Z,11.27
2018-12-17T22:33:31.458Z,14.97
2018-12-17T22:35:58.926Z,11.17
2018-12-17T22:38:26.382Z,14.60
2018-12-17T22:40:53.859Z,12.27
2018-12-17T22:43:21.320Z,12.83
2018-12-17T22:45:48.799Z,11.30
2018-12-17T22:48:16.260Z,12.10
2018-12-17T22:50:43.725Z,11.83
2018-12-17T22:53:11.168Z,11.70
2018-12-17T22:55:38.653Z,12.07
2018-12-17T22:58:06.127Z,12.33
2018-12-17T23:00:33.608Z,12.73
2018-12-17T23:03:01.085Z,16.53
2018-12-17T23:05:28.530Z,13.60
2018-12-17T23:07:56.105Z,13.67
2018-12-17T23:10:37.403Z,17.57
2018-12-17T23:13:16.807Z,15.00
2018-12-17T23:15:56.283Z,14.43
2018-12-17T23:18:23.350Z,13.53
2018-12-17T23:20:50.858Z,19.30
2018-12-17T23:23:18.339Z,13.67
2018-12-17T23:25:45.795Z,12.27
2018-12-17T23:28:13.290Z,15.07
2018-12-17T23:30:40.752Z,12.00
2018-12-17T23:33:08.216Z,13.20
2018-12-17T23:35:35.674Z,14.93
2018-12-17T23:38:03.123Z,10.80
2018-12-17T23:40:30.579Z,14.00
2018-12-17T23:42:58.041Z,12.30
2018-12-17T23:45:25.483Z,10.47
2018-12-17T23:47:52.984Z,13.13
2018-12-17T23:50:20.469Z,10.83
2018-12-17T23:52:47.918Z,10.27
2018-12-17T23:55:15.394Z,13.83
2018-12-17T23:57:42.844Z,15.13
